createdAt,value
2023-04-12T00:00:53.024Z,1.88
2023-04-12T00:03:22.038Z,1.20
2023-04-12T00:05:54.531Z,1.52
2023-04-12T00:08:26.703Z,1.80
2023-04-12T00:10:53.596Z,1.58
2023-04-12T00:13:20.521Z,1.33
2023-04-12T00:15:49.744Z,1.52
2023-04-12T00:18:16.475Z,1.48
2023-04-12T00:20:43.637Z,1.45
2023-04-12T00:23:12.847Z,1.30
2023-04-12T00:25:39.596Z,1.50
2023-04-12T00:28:06.525Z,1.38
2023-04-12T00:30:33.289Z,1.40
2023-04-12T00:33:00.145Z,1.10
2023-04-12T00:35:26.933Z,1.15
2023-04-12T00:37:54.640Z,1.90
2023-04-12T00:40:23.533Z,1.20
2023-04-12T00:42:50.474Z,1.20
2023-04-12T00:45:17.162Z,1.50
2023-04-12T00:47:46.105Z,1.48
2023-04-12T00:50:17.285Z,1.30
2023-04-12T00:52:46.789Z,1.05
2023-04-12T00:55:15.993Z,1.33
2023-04-12T00:57:42.775Z,1.23
2023-04-12T01:00:13.797Z,1.52
2023-04-12T01:02:46.910Z,0.95
2023-04-12T01:05:22.394Z,1.75
2023-04-12T01:08:11.975Z,2.08
2023-04-12T01:11:01.140Z,1.58
2023-04-12T01:13:41.748Z,1.00
2023-04-12T01:16:40.673Z,1.67
2023-04-12T01:19:36.473Z,1.20
2023-04-12T01:22:22.224Z,1.27
2023-04-12T01:25:00.502Z,1.55
2023-04-12T01:27:44.960Z,1.20
2023-04-12T01:30:13.746Z,1.45
2023-04-12T01:32:43.766Z,1.10
2023-04-12T01:35:13.767Z,1.00
2023-04-12T01:40:12.139Z,1.25
2023-04-12T01:42:41.038Z,1.75
2023-04-12T01:45:08.240Z,1.42
2023-04-12T01:47:35.392Z,0.98
2023-04-12T01:50:37.229Z,1.23
2023-04-12T01:53:14.098Z,1.33
2023-04-12T01:55:45.837Z,1.20
2023-04-12T01:58:14.777Z,1.08
2023-04-12T02:00:44.171Z,1.60
2023-04-12T02:03:12.535Z,1.65
2023-04-12T02:05:42.160Z,1.35
2023-04-12T02:08:09.105Z,1.70
2023-04-12T02:10:36.858Z,1.50
2023-04-12T02:13:04.203Z,1.63
2023-04-12T02:15:31.256Z,1.50
2023-04-12T02:18:00.391Z,1.38
2023-04-12T02:20:30.685Z,1.85
2023-04-12T02:22:57.780Z,1.55
2023-04-12T02:25:24.837Z,1.50
2023-04-12T02:27:51.913Z,1.30
2023-04-12T02:30:18.942Z,1.92
2023-04-12T02:32:45.865Z,1.83
2023-04-12T02:35:17.422Z,1.58
2023-04-12T02:37:48.639Z,1.02
2023-04-12T02:40:15.696Z,1.70
2023-04-12T02:42:43.109Z,1.00
2023-04-12T02:45:11.265Z,1.55
2023-04-12T02:47:40.959Z,1.40
2023-04-12T02:50:10.834Z,1.52
2023-04-12T02:52:37.526Z,1.40
2023-04-12T02:55:06.796Z,1.67
2023-04-12T02:57:33.483Z,1.30
2023-04-12T03:00:00.367Z,1.52
2023-04-12T03:02:27.779Z,1.45
2023-04-12T03:04:54.750Z,2.08
2023-04-12T03:07:21.952Z,1.15
2023-04-12T03:09:50.727Z,2.00
2023-04-12T03:12:17.455Z,1.50
2023-04-12T03:14:49.078Z,1.33
2023-04-12T03:17:15.881Z,1.60
2023-04-12T03:19:42.550Z,1.48
2023-04-12T03:22:09.236Z,1.55
2023-04-12T03:24:37.108Z,1.33
2023-04-12T03:27:04.896Z,1.73
2023-04-12T03:29:32.185Z,1.70
2023-04-12T03:31:59.609Z,1.92
2023-04-12T03:34:32.163Z,1.42
2023-04-12T03:37:00.369Z,1.27
2023-04-12T03:39:27.281Z,1.88
2023-04-12T03:41:54.787Z,1.60
2023-04-12T03:44:26.120Z,1.90
2023-04-12T03:46:55.312Z,2.13
2023-04-12T03:49:22.111Z,2.67
2023-04-12T03:51:50.700Z,1.70
2023-04-12T03:54:17.368Z,2.28
2023-04-12T03:56:46.463Z,1.63
2023-04-12T03:59:14.669Z,2.15
2023-04-12T04:01:41.650Z,1.67
2023-04-12T04:04:10.943Z,1.60
2023-04-12T04:06:40.382Z,1.80
2023-04-12T04:09:09.601Z,1.58
2023-04-12T04:11:37.678Z,1.30
2023-04-12T04:14:04.334Z,1.55
2023-04-12T04:16:31.172Z,1.90
2023-04-12T04:18:57.951Z,1.20
2023-04-12T04:21:24.766Z,1.48
2023-04-12T04:23:58.420Z,1.45
2023-04-12T04:26:33.559Z,1.40
2023-04-12T04:29:03.676Z,1.27
2023-04-12T04:31:37.650Z,1.20
2023-04-12T04:34:05.517Z,1.20
2023-04-12T04:36:38.033Z,1.38
2023-04-12T04:39:06.961Z,1.40
2023-04-12T04:41:39.541Z,2.03
2023-04-12T04:44:10.442Z,1.45
2023-04-12T04:46:38.158Z,1.52
2023-04-12T04:49:05.418Z,1.10
2023-04-12T04:51:32.429Z,1.30
2023-04-12T04:53:59.311Z,1.20
2023-04-12T04:56:28.545Z,1.00
2023-04-12T04:58:57.457Z,1.20
2023-04-12T05:01:28.518Z,1.30
2023-04-12T05:03:56.091Z,1.15
2023-04-12T05:06:27.249Z,1.70
2023-04-12T05:08:56.948Z,1.60
2023-04-12T05:11:23.879Z,1.20
2023-04-12T05:13:50.723Z,1.45
2023-04-12T05:16:19.965Z,1.17
2023-04-12T05:18:46.745Z,1.30
2023-04-12T05:21:15.958Z,1.50
2023-04-12T05:23:46.192Z,1.88
2023-04-12T05:26:15.395Z,1.42
2023-04-12T05:28:42.038Z,1.45
2023-04-12T05:31:09.469Z,1.40
2023-04-12T05:33:36.838Z,1.10
2023-04-12T05:36:04.120Z,1.63
2023-04-12T05:38:33.334Z,1.10
2023-04-12T05:41:04.628Z,1.40
2023-04-12T05:43:33.876Z,1.20
2023-04-12T05:46:00.612Z,1.48
2023-04-12T05:48:27.331Z,1.70
2023-04-12T05:50:54.581Z,1.38
2023-04-12T05:53:22.432Z,1.02
2023-04-12T05:55:49.179Z,1.20
2023-04-12T05:58:18.099Z,1.30
2023-04-12T06:00:45.303Z,1.30
2023-04-12T06:03:12.389Z,1.10
2023-04-12T06:05:41.470Z,1.35
2023-04-12T06:08:12.827Z,1.20
2023-04-12T06:10:39.584Z,1.15
2023-04-12T06:13:06.275Z,1.30
2023-04-12T06:15:33.555Z,1.30
2023-04-12T06:18:00.559Z,1.13
2023-04-12T06:20:27.524Z,1.15
2023-04-12T06:22:56.541Z,1.08
2023-04-12T06:25:23.978Z,1.30
2023-04-12T06:27:50.719Z,1.20
2023-04-12T06:30:18.468Z,1.65
2023-04-12T06:32:45.221Z,1.30
2023-04-12T06:35:14.051Z,1.52
2023-04-12T06:37:40.706Z,1.05
2023-04-12T06:40:08.499Z,1.40
2023-04-12T06:42:35.289Z,1.15
2023-04-12T06:45:02.201Z,1.27
2023-04-12T06:47:29.572Z,1.25
2023-04-12T06:49:58.608Z,1.15
2023-04-12T06:52:26.585Z,1.20
2023-04-12T06:54:54.244Z,1.50
2023-04-12T06:57:20.961Z,1.33
2023-04-12T06:59:50.306Z,1.10
2023-04-12T07:02:17.069Z,1.00
2023-04-12T07:04:43.842Z,1.25
2023-04-12T07:07:10.835Z,1.35
2023-04-12T07:09:37.961Z,1.00
2023-04-12T07:12:04.999Z,0.90
2023-04-12T07:14:31.861Z,1.20
2023-04-12T07:17:01.032Z,1.20
2023-04-12T07:19:31.211Z,1.10
2023-04-12T07:21:58.417Z,1.48
2023-04-12T07:24:27.613Z,0.95
2023-04-12T07:26:57.177Z,0.95
2023-04-12T07:29:23.951Z,0.90
2023-04-12T07:31:50.897Z,0.85
2023-04-12T07:34:17.890Z,1.15
2023-04-12T07:36:44.966Z,1.23
2023-04-12T07:39:14.641Z,1.10
2023-04-12T07:41:46.393Z,0.80
2023-04-12T07:44:13.098Z,0.85
2023-04-12T07:46:41.881Z,1.20
2023-04-12T07:49:10.547Z,1.10
2023-04-12T07:51:37.627Z,1.08
2023-04-12T07:54:04.650Z,0.90
2023-04-12T07:56:35.289Z,1.10
2023-04-12T07:59:02.228Z,0.90
2023-04-12T08:01:28.993Z,0.68
2023-04-12T08:03:55.965Z,1.10
2023-04-12T08:06:22.969Z,0.70
2023-04-12T08:08:52.235Z,1.13
2023-04-12T08:11:19.001Z,1.05
2023-04-12T08:13:48.088Z,1.00
2023-04-12T08:16:17.350Z,0.80
2023-04-12T08:18:44.196Z,0.70
2023-04-12T08:21:10.979Z,1.25
2023-04-12T08:23:38.155Z,0.90
2023-04-12T08:26:05.114Z,0.88
2023-04-12T08:28:32.570Z,0.73
2023-04-12T08:30:59.661Z,0.95
2023-04-12T08:33:26.964Z,0.77
2023-04-12T08:35:53.970Z,0.77
2023-04-12T08:38:25.413Z,0.73
2023-04-12T08:40:58.475Z,0.73
2023-04-12T08:43:29.024Z,0.82
2023-04-12T08:45:57.730Z,0.85
2023-04-12T08:48:26.120Z,0.93
2023-04-12T08:50:53.167Z,1.10
2023-04-12T08:53:19.896Z,0.90
2023-04-12T08:55:46.686Z,0.90
2023-04-12T08:58:19.647Z,0.90
2023-04-12T09:00:47.117Z,1.00
2023-04-12T09:03:14.232Z,0.50
2023-04-12T09:05:41.655Z,0.80
2023-04-12T09:08:08.428Z,1.02
2023-04-12T09:10:36.980Z,1.10
2023-04-12T09:13:04.979Z,1.10
2023-04-12T09:15:31.920Z,0.75
2023-04-12T09:18:15.178Z,0.65
2023-04-12T09:20:43.988Z,0.73
2023-04-12T09:23:21.811Z,1.00
2023-04-12T09:25:51.677Z,0.82
2023-04-12T09:28:29.811Z,0.73
2023-04-12T09:31:00.549Z,0.80
2023-04-12T09:33:34.400Z,1.35
2023-04-12T09:36:09.323Z,1.20
2023-04-12T09:38:37.045Z,1.45
2023-04-12T09:41:26.915Z,0.80
2023-04-12T09:43:54.206Z,0.90
2023-04-12T09:46:21.079Z,0.88
2023-04-12T09:48:53.071Z,1.10
2023-04-12T09:51:33.355Z,0.80
2023-04-12T09:54:05.637Z,0.98
2023-04-12T09:56:35.788Z,0.90
2023-04-12T09:59:07.213Z,0.80
2023-04-12T10:01:39.602Z,0.93
2023-04-12T10:04:08.282Z,0.82
2023-04-12T10:06:37.221Z,0.65
2023-04-12T10:09:04.800Z,0.82
2023-04-12T10:11:33.912Z,1.08
2023-04-12T10:14:05.932Z,0.80
2023-04-12T10:16:35.018Z,0.77
2023-04-12T10:19:04.704Z,1.17
2023-04-12T10:21:31.892Z,1.10
2023-04-12T10:24:01.626Z,1.23
2023-04-12T10:26:28.583Z,1.10
2023-04-12T10:29:23.837Z,1.20
2023-04-12T10:31:51.068Z,1.10
2023-04-12T10:34:20.283Z,1.30
2023-04-12T10:36:59.803Z,1.25
2023-04-12T10:39:44.156Z,1.05
2023-04-12T10:42:23.496Z,1.25
2023-04-12T10:44:52.134Z,1.08
2023-04-12T10:47:50.284Z,0.80
2023-04-12T10:50:29.547Z,0.85
2023-04-12T10:53:18.217Z,0.80
2023-04-12T10:55:48.354Z,0.70
2023-04-12T10:58:34.365Z,0.80
2023-04-12T11:01:01.123Z,0.82
2023-04-12T11:03:30.283Z,0.70
2023-04-12T11:06:16.190Z,0.70
2023-04-12T11:08:55.255Z,0.90
2023-04-12T11:11:22.669Z,0.82
2023-04-12T11:13:56.041Z,0.55
2023-04-12T11:16:23.013Z,1.00
2023-04-12T11:18:50.482Z,1.73
2023-04-12T11:21:18.501Z,1.20
2023-04-12T11:23:48.871Z,1.30
2023-04-12T11:26:20.850Z,0.73
2023-04-12T11:28:48.320Z,0.70
2023-04-12T11:31:21.474Z,0.68
2023-04-12T11:33:48.345Z,0.52
2023-04-12T11:36:15.147Z,0.65
2023-04-12T11:38:42.242Z,0.95
2023-04-12T11:41:09.478Z,1.15
2023-04-12T11:43:38.656Z,1.08
2023-04-12T11:46:06.102Z,0.60
2023-04-12T11:48:33.236Z,0.85
2023-04-12T11:51:10.343Z,1.00
2023-04-12T11:53:39.433Z,1.33
2023-04-12T11:56:12.451Z,1.00
2023-04-12T11:58:41.643Z,1.10
2023-04-12T12:01:11.100Z,1.17
2023-04-12T12:03:38.071Z,0.90
2023-04-12T12:06:05.813Z,1.27
2023-04-12T12:08:33.118Z,0.90
2023-04-12T12:11:07.995Z,1.30
2023-04-12T12:13:55.013Z,0.95
2023-04-12T12:16:31.331Z,1.30
2023-04-12T12:18:58.277Z,1.30
2023-04-12T12:21:27.162Z,1.38
2023-04-12T12:23:54.462Z,1.10
2023-04-12T12:26:22.808Z,1.00
2023-04-12T12:28:56.823Z,1.08
2023-04-12T12:31:26.379Z,1.20
2023-04-12T12:33:58.188Z,0.85
2023-04-12T12:36:36.783Z,1.23
2023-04-12T12:39:07.246Z,1.17
2023-04-12T12:41:37.938Z,0.90
2023-04-12T12:44:05.217Z,0.95
2023-04-12T12:46:50.971Z,1.08
2023-04-12T12:49:19.323Z,1.65
2023-04-12T12:51:48.295Z,1.38
2023-04-12T12:54:28.472Z,1.30
2023-04-12T12:57:04.374Z,1.50
2023-04-12T12:59:31.340Z,0.90
2023-04-12T13:01:58.257Z,1.10
2023-04-12T13:04:25.283Z,1.20
2023-04-12T13:06:52.411Z,1.00
2023-04-12T13:09:21.732Z,1.25
2023-04-12T13:11:48.421Z,1.40
2023-04-12T13:14:17.475Z,1.10
2023-04-12T13:16:46.188Z,1.23
2023-04-12T13:19:13.062Z,1.23
2023-04-12T13:21:39.711Z,1.17
2023-04-12T13:24:06.592Z,1.05
2023-04-12T13:26:35.509Z,1.02
2023-04-12T13:29:02.186Z,1.10
2023-04-12T13:31:29.036Z,1.00
2023-04-12T13:33:55.769Z,1.00
2023-04-12T13:36:22.455Z,0.98
2023-04-12T13:38:49.124Z,1.13
2023-04-12T13:41:19.115Z,1.00
2023-04-12T13:43:45.801Z,0.80
2023-04-12T13:46:14.758Z,0.90
2023-04-12T13:48:41.585Z,0.87
2023-04-12T13:51:09.074Z,1.25
2023-04-12T13:53:36.422Z,1.00
2023-04-12T13:56:03.164Z,1.33
2023-04-12T13:58:32.009Z,1.13
2023-04-12T14:01:00.522Z,1.08
2023-04-12T14:03:28.598Z,1.20
2023-04-12T14:05:56.036Z,1.38
2023-04-12T14:08:22.853Z,1.30
2023-04-12T14:10:49.691Z,1.20
2023-04-12T14:13:16.506Z,0.90
2023-04-12T14:15:43.145Z,0.80
2023-04-12T14:18:09.877Z,0.95
2023-04-12T14:20:38.818Z,0.82
2023-04-12T14:23:08.076Z,0.87
2023-04-12T14:25:39.642Z,1.13
2023-04-12T14:28:09.017Z,0.95
2023-04-12T14:30:38.288Z,1.00
2023-04-12T14:33:05.115Z,0.75
2023-04-12T14:35:34.319Z,0.63
2023-04-12T14:38:01.073Z,1.35
2023-04-12T14:40:30.385Z,1.00
2023-04-12T14:42:57.154Z,1.05
2023-04-12T14:45:23.888Z,1.00
2023-04-12T14:47:50.842Z,0.90
2023-04-12T14:50:17.556Z,1.35
2023-04-12T14:52:44.250Z,0.90
2023-04-12T14:55:11.209Z,1.00
2023-04-12T14:57:39.076Z,0.90
2023-04-12T15:00:13.168Z,0.85
2023-04-12T15:02:41.239Z,0.82
2023-04-12T15:05:08.576Z,0.80
2023-04-12T15:07:35.919Z,0.70
2023-04-12T15:10:04.839Z,1.20
2023-04-12T15:12:35.370Z,0.87
2023-04-12T15:15:06.212Z,1.35
2023-04-12T15:17:34.193Z,1.35
2023-04-12T15:20:09.176Z,1.20
2023-04-12T15:22:36.510Z,1.00
2023-04-12T15:25:04.231Z,2.45
2023-04-12T15:27:33.867Z,2.00
2023-04-12T15:30:02.053Z,1.42
2023-04-12T15:32:36.292Z,1.48
2023-04-12T15:35:18.742Z,1.80
2023-04-12T15:37:53.711Z,1.00
2023-04-12T15:40:21.231Z,0.70
2023-04-12T15:42:47.954Z,0.95
2023-04-12T15:45:14.710Z,1.30
2023-04-12T15:47:47.813Z,1.27
2023-04-12T15:50:14.574Z,1.70
2023-04-12T15:52:43.073Z,1.02
2023-04-12T15:55:12.276Z,1.30
2023-04-12T15:57:39.167Z,1.42
2023-04-12T16:00:24.659Z,1.70
2023-04-12T16:02:54.568Z,2.22
2023-04-12T16:05:24.497Z,1.52
2023-04-12T16:07:51.505Z,1.52
2023-04-12T16:10:22.239Z,1.45
2023-04-12T16:12:53.890Z,1.40
2023-04-12T16:15:21.049Z,1.02
2023-04-12T16:17:48.877Z,1.58
2023-04-12T16:20:21.679Z,1.45
2023-04-12T16:22:55.922Z,1.30
2023-04-12T16:25:24.238Z,1.30
2023-04-12T16:27:51.505Z,1.27
2023-04-12T16:30:18.533Z,1.77
2023-04-12T16:32:48.824Z,1.00
2023-04-12T16:35:16.040Z,1.17
2023-04-12T16:37:47.038Z,0.75
2023-04-12T16:40:16.881Z,0.40
2023-04-12T16:42:45.945Z,0.45
2023-04-12T16:45:14.868Z,0.50
2023-04-12T16:47:41.898Z,0.57
2023-04-12T16:50:09.495Z,0.57
2023-04-12T16:52:37.634Z,0.40
2023-04-12T16:55:04.821Z,0.73
2023-04-12T16:57:32.736Z,1.45
2023-04-12T16:59:59.523Z,0.80
2023-04-12T17:02:31.296Z,1.00
2023-04-12T17:04:58.134Z,1.30
2023-04-12T17:07:24.903Z,0.98
2023-04-12T17:09:54.953Z,0.85
2023-04-12T17:12:22.090Z,0.73
2023-04-12T17:14:51.159Z,0.80
2023-04-12T17:17:17.922Z,0.60
2023-04-12T17:19:44.581Z,0.65
2023-04-12T17:22:17.995Z,0.70
2023-04-12T17:24:46.262Z,0.80
2023-04-12T17:27:12.947Z,0.70
2023-04-12T17:29:41.660Z,1.00
2023-04-12T17:32:09.186Z,0.90
2023-04-12T17:34:36.259Z,1.10
2023-04-12T17:37:04.364Z,0.85
2023-04-12T17:39:32.122Z,1.00
2023-04-12T17:41:59.198Z,1.08
2023-04-12T17:44:26.451Z,1.00
2023-04-12T17:46:53.542Z,1.00
2023-04-12T17:49:21.443Z,0.80
2023-04-12T17:51:48.559Z,0.90
2023-04-12T17:54:16.319Z,0.98
2023-04-12T17:56:43.730Z,1.00
2023-04-12T17:59:11.366Z,0.98
2023-04-12T18:01:43.102Z,1.02
2023-04-12T18:04:09.945Z,0.93
2023-04-12T18:06:40.072Z,0.98
2023-04-12T18:09:06.794Z,0.70
2023-04-12T18:11:38.777Z,0.80
2023-04-12T18:14:09.188Z,0.88
2023-04-12T18:16:37.097Z,0.93
2023-04-12T18:19:04.939Z,1.35
2023-04-12T18:21:34.788Z,1.20
2023-04-12T18:26:32.289Z,1.20
2023-04-12T18:31:27.303Z,1.00
2023-04-12T18:33:57.544Z,1.10
2023-04-12T18:36:27.145Z,1.20
2023-04-12T18:38:54.246Z,1.35
2023-04-12T18:41:21.528Z,1.52
2023-04-12T18:43:51.148Z,1.35
2023-04-12T18:46:21.101Z,1.38
2023-04-12T18:51:19.931Z,1.20
2023-04-12T18:53:49.077Z,1.50
2023-04-12T18:56:18.507Z,1.70
2023-04-12T18:58:55.079Z,1.70
2023-04-12T19:01:25.818Z,1.73
2023-04-12T19:03:53.413Z,1.67
2023-04-12T19:06:22.886Z,2.30
2023-04-12T19:08:52.500Z,2.50
2023-04-12T19:11:19.593Z,2.33
2023-04-12T19:13:46.796Z,2.10
2023-04-12T19:16:13.992Z,1.77
2023-04-12T19:18:41.337Z,1.67
2023-04-12T19:21:10.920Z,1.83
2023-04-12T19:23:38.171Z,1.58
2023-04-12T19:26:05.563Z,1.50
2023-04-12T19:28:32.708Z,1.85
2023-04-12T19:30:59.973Z,1.60
2023-04-12T19:33:28.925Z,2.03
2023-04-12T19:35:56.320Z,1.60
2023-04-12T19:38:25.309Z,1.85
2023-04-12T19:40:52.339Z,2.00
2023-04-12T19:43:19.022Z,1.90
2023-04-12T19:45:46.062Z,1.88
2023-04-12T19:48:13.017Z,1.75
2023-04-12T19:50:40.202Z,1.70
2023-04-12T19:53:11.015Z,1.55
2023-04-12T19:55:38.781Z,1.40
2023-04-12T19:58:06.120Z,1.50
2023-04-12T20:00:32.831Z,1.70
2023-04-12T20:02:59.598Z,1.70
2023-04-12T20:05:26.823Z,1.52
2023-04-12T20:07:55.797Z,1.60
2023-04-12T20:10:22.673Z,1.67
2023-04-12T20:12:49.436Z,1.50
2023-04-12T20:15:17.600Z,1.75
2023-04-12T20:17:44.730Z,1.50
2023-04-12T20:20:15.474Z,1.58
2023-04-12T20:22:43.881Z,1.40
2023-04-12T20:25:11.373Z,1.83
2023-04-12T20:27:39.083Z,1.33
2023-04-12T20:30:07.420Z,1.48
2023-04-12T20:32:35.823Z,1.63
2023-04-12T20:35:03.954Z,1.92
2023-04-12T20:37:30.680Z,1.50
2023-04-12T20:39:59.292Z,1.33
2023-04-12T20:42:28.722Z,1.60
2023-04-12T20:45:00.391Z,1.10
2023-04-12T20:47:29.765Z,1.05
2023-04-12T20:49:57.011Z,1.20
2023-04-12T20:52:23.711Z,1.27
2023-04-12T20:54:50.445Z,1.15
2023-04-12T20:57:19.973Z,1.40
2023-04-12T20:59:47.150Z,1.50
2023-04-12T21:02:16.246Z,1.17
2023-04-12T21:04:45.046Z,1.25
2023-04-12T21:07:18.114Z,1.25
2023-04-12T21:09:44.914Z,0.90
2023-04-12T21:12:11.755Z,0.70
2023-04-12T21:14:40.669Z,0.60
2023-04-12T21:17:07.911Z,0.90
2023-04-12T21:19:41.834Z,0.85
2023-04-12T21:22:08.737Z,1.30
2023-04-12T21:24:38.237Z,0.98
2023-04-12T21:27:08.382Z,0.88
2023-04-12T21:29:41.197Z,0.90
2023-04-12T21:32:09.195Z,0.88
2023-04-12T21:34:36.020Z,0.88
2023-04-12T21:37:04.152Z,0.70
2023-04-12T21:39:33.531Z,0.90
2023-04-12T21:42:01.617Z,1.83
2023-04-12T21:44:28.344Z,1.73
2023-04-12T21:46:55.052Z,1.08
2023-04-12T21:49:23.882Z,0.93
2023-04-12T21:51:56.856Z,1.20
2023-04-12T21:54:28.671Z,0.90
2023-04-12T21:56:58.216Z,1.13
2023-04-12T21:59:27.810Z,0.73
2023-04-12T22:01:57.137Z,0.85
2023-04-12T22:04:23.898Z,0.88
2023-04-12T22:06:53.053Z,0.93
2023-04-12T22:09:20.259Z,1.27
2023-04-12T22:11:49.004Z,0.93
2023-04-12T22:14:15.770Z,0.65
2023-04-12T22:16:42.455Z,0.80
2023-04-12T22:19:09.278Z,0.85
2023-04-12T22:21:35.938Z,1.10
2023-04-12T22:24:08.049Z,0.98
2023-04-12T22:26:34.775Z,1.00
2023-04-12T22:29:01.448Z,1.00
2023-04-12T22:31:33.118Z,0.93
2023-04-12T22:34:01.646Z,1.00
2023-04-12T22:36:29.653Z,1.05
2023-04-12T22:38:56.522Z,0.77
2023-04-12T22:41:28.444Z,0.73
2023-04-12T22:44:01.262Z,0.68
2023-04-12T22:46:32.132Z,0.80
2023-04-12T22:49:00.444Z,0.65
2023-04-12T22:51:27.846Z,1.02
2023-04-12T22:53:59.728Z,0.80
2023-04-12T22:56:29.170Z,0.80
2023-04-12T22:58:55.844Z,0.70
2023-04-12T23:01:25.177Z,0.90
2023-04-12T23:03:51.983Z,0.80
2023-04-12T23:06:20.520Z,0.75
2023-04-12T23:08:49.537Z,0.70
2023-04-12T23:11:16.324Z,0.50
2023-04-12T23:13:45.387Z,0.75
2023-04-12T23:16:12.086Z,1.05
2023-04-12T23:18:41.336Z,0.70
2023-04-12T23:21:11.072Z,0.60
2023-04-12T23:23:38.130Z,0.47
2023-04-12T23:26:05.272Z,0.70
2023-04-12T23:28:34.411Z,0.45
2023-04-12T23:31:01.726Z,1.10
2023-04-12T23:33:28.941Z,0.85
2023-04-12T23:36:05.264Z,0.70
2023-04-12T23:38:34.664Z,0.70
2023-04-12T23:41:03.906Z,0.50
2023-04-12T23:43:32.523Z,0.80
2023-04-12T23:46:02.147Z,0.60
2023-04-12T23:48:32.263Z,0.68
2023-04-12T23:53:25.912Z,0.80
2023-04-12T23:55:57.137Z,1.25
2023-04-12T23:58:25.425Z,0.60
